sensor_id;sensor_type;location;lat;lon;timestamp;temperature;humidity
71647;SHT31;59706;45.634;11.704;2023-04-28T00:00:02;14.39;63.35
71647;SHT31;59706;45.634;11.704;2023-04-28T00:02:31;14.32;63.62
71647;SHT31;59706;45.634;11.704;2023-04-28T00:04:59;14.31;63.81
71647;SHT31;59706;45.634;11.704;2023-04-28T00:07:26;14.25;63.81
71647;SHT31;59706;45.634;11.704;2023-04-28T00:09:54;14.25;63.78
71647;SHT31;59706;45.634;11.704;2023-04-28T00:12:22;14.33;63.70
71647;SHT31;59706;45.634;11.704;2023-04-28T00:14:49;14.44;63.31
71647;SHT31;59706;45.634;11.704;2023-04-28T00:17:16;14.48;63.19
71647;SHT31;59706;45.634;11.704;2023-04-28T00:19:44;14.47;63.01
71647;SHT31;59706;45.634;11.704;2023-04-28T00:22:12;14.41;62.92
71647;SHT31;59706;45.634;11.704;2023-04-28T00:24:40;14.33;62.90
71647;SHT31;59706;45.634;11.704;2023-04-28T00:27:07;14.24;62.94
71647;SHT31;59706;45.634;11.704;2023-04-28T00:29:34;14.14;63.11
71647;SHT31;59706;45.634;11.704;2023-04-28T00:32:02;14.05;63.27
71647;SHT31;59706;45.634;11.704;2023-04-28T00:34:32;14.00;63.39
71647;SHT31;59706;45.634;11.704;2023-04-28T00:37:02;13.96;63.55
71647;SHT31;59706;45.634;11.704;2023-04-28T00:39:30;13.93;63.70
71647;SHT31;59706;45.634;11.704;2023-04-28T00:41:57;13.84;63.94
71647;SHT31;59706;45.634;11.704;2023-04-28T00:44:26;13.76;64.19
71647;SHT31;59706;45.634;11.704;2023-04-28T00:46:53;13.72;64.33
71647;SHT31;59706;45.634;11.704;2023-04-28T00:49:21;13.68;64.38
71647;SHT31;59706;45.634;11.704;2023-04-28T00:51:49;13.65;64.42
71647;SHT31;59706;45.634;11.704;2023-04-28T00:54:17;13.61;64.50
71647;SHT31;59706;45.634;11.704;2023-04-28T00:56:45;13.62;64.58
71647;SHT31;59706;45.634;11.704;2023-04-28T00:59:13;13.69;64.41
71647;SHT31;59706;45.634;11.704;2023-04-28T01:01:41;13.68;64.29
71647;SHT31;59706;45.634;11.704;2023-04-28T01:04:09;13.66;64.26
71647;SHT31;59706;45.634;11.704;2023-04-28T01:06:36;13.64;64.34
71647;SHT31;59706;45.634;11.704;2023-04-28T01:09:03;13.61;64.47
71647;SHT31;59706;45.634;11.704;2023-04-28T01:11:31;13.53;64.55
71647;SHT31;59706;45.634;11.704;2023-04-28T01:13:59;13.48;64.61
71647;SHT31;59706;45.634;11.704;2023-04-28T01:16:27;13.45;64.73
71647;SHT31;59706;45.634;11.704;2023-04-28T01:18:54;13.54;64.59
71647;SHT31;59706;45.634;11.704;2023-04-28T01:21:29;13.52;64.50
71647;SHT31;59706;45.634;11.704;2023-04-28T01:23:57;13.51;64.35
71647;SHT31;59706;45.634;11.704;2023-04-28T01:26:24;13.55;63.98
71647;SHT31;59706;45.634;11.704;2023-04-28T01:28:52;13.56;63.79
71647;SHT31;59706;45.634;11.704;2023-04-28T01:31:20;13.53;63.82
71647;SHT31;59706;45.634;11.704;2023-04-28T01:33:47;13.59;63.95
71647;SHT31;59706;45.634;11.704;2023-04-28T01:36:14;13.65;64.04
71647;SHT31;59706;45.634;11.704;2023-04-28T01:38:41;13.73;64.10
71647;SHT31;59706;45.634;11.704;2023-04-28T01:41:09;13.76;64.09
71647;SHT31;59706;45.634;11.704;2023-04-28T01:43:37;13.83;64.01
71647;SHT31;59706;45.634;11.704;2023-04-28T01:46:04;13.85;64.13
71647;SHT31;59706;45.634;11.704;2023-04-28T01:48:31;13.71;64.40
71647;SHT31;59706;45.634;11.704;2023-04-28T01:50:59;13.77;64.40
71647;SHT31;59706;45.634;11.704;2023-04-28T01:53:26;13.75;64.40
71647;SHT31;59706;45.634;11.704;2023-04-28T01:55:54;13.64;64.52
71647;SHT31;59706;45.634;11.704;2023-04-28T01:58:22;13.55;64.85
71647;SHT31;59706;45.634;11.704;2023-04-28T02:00:50;13.49;65.12
71647;SHT31;59706;45.634;11.704;2023-04-28T02:03:17;13.49;65.19
71647;SHT31;59706;45.634;11.704;2023-04-28T02:05:44;13.55;65.17
71647;SHT31;59706;45.634;11.704;2023-04-28T02:08:12;13.47;65.26
71647;SHT31;59706;45.634;11.704;2023-04-28T02:10:40;13.36;65.50
71647;SHT31;59706;45.634;11.704;2023-04-28T02:13:07;13.34;65.76
71647;SHT31;59706;45.634;11.704;2023-04-28T02:15:41;13.34;65.70
71647;SHT31;59706;45.634;11.704;2023-04-28T02:18:09;13.44;65.56
71647;SHT31;59706;45.634;11.704;2023-04-28T02:20:36;13.58;65.50
71647;SHT31;59706;45.634;11.704;2023-04-28T02:23:04;13.62;65.60
71647;SHT31;59706;45.634;11.704;2023-04-28T02:25:32;13.60;65.60
71647;SHT31;59706;45.634;11.704;2023-04-28T02:28:00;13.60;65.70
71647;SHT31;59706;45.634;11.704;2023-04-28T02:30:28;13.54;65.74
71647;SHT31;59706;45.634;11.704;2023-04-28T02:32:55;13.45;65.89
71647;SHT31;59706;45.634;11.704;2023-04-28T02:35:22;13.41;65.96
71647;SHT31;59706;45.634;11.704;2023-04-28T02:37:49;13.38;66.06
71647;SHT31;59706;45.634;11.704;2023-04-28T02:40:17;13.34;66.16
71647;SHT31;59706;45.634;11.704;2023-04-28T02:42:45;13.50;66.24
71647;SHT31;59706;45.634;11.704;2023-04-28T02:45:13;13.56;66.26
71647;SHT31;59706;45.634;11.704;2023-04-28T02:47:42;13.56;66.29
71647;SHT31;59706;45.634;11.704;2023-04-28T02:50:10;13.61;66.22
71647;SHT31;59706;45.634;11.704;2023-04-28T02:52:38;13.59;66.30
71647;SHT31;59706;45.634;11.704;2023-04-28T02:55:05;13.61;66.27
71647;SHT31;59706;45.634;11.704;2023-04-28T02:57:34;13.59;65.99
71647;SHT31;59706;45.634;11.704;2023-04-28T03:00:01;13.63;65.64
71647;SHT31;59706;45.634;11.704;2023-04-28T03:02:31;13.60;65.50
71647;SHT31;59706;45.634;11.704;2023-04-28T03:04:59;13.49;65.76
71647;SHT31;59706;45.634;11.704;2023-04-28T03:07:26;13.47;65.85
71647;SHT31;59706;45.634;11.704;2023-04-28T03:09:54;13.42;65.87
71647;SHT31;59706;45.634;11.704;2023-04-28T03:12:21;13.38;65.96
71647;SHT31;59706;45.634;11.704;2023-04-28T03:14:49;13.36;66.06
71647;SHT31;59706;45.634;11.704;2023-04-28T03:17:17;13.45;65.87
71647;SHT31;59706;45.634;11.704;2023-04-28T03:19:45;13.41;65.76
71647;SHT31;59706;45.634;11.704;2023-04-28T03:22:12;13.35;65.80
71647;SHT31;59706;45.634;11.704;2023-04-28T03:24:47;13.28;65.96
71647;SHT31;59706;45.634;11.704;2023-04-28T03:27:14;13.20;66.09
71647;SHT31;59706;45.634;11.704;2023-04-28T03:29:42;13.10;66.17
71647;SHT31;59706;45.634;11.704;2023-04-28T03:32:10;13.02;66.27
71647;SHT31;59706;45.634;11.704;2023-04-28T03:34:37;13.01;66.27
